createdAt,value
2019-02-04T00:00:24.829Z,77.49
2019-02-04T00:02:53.117Z,77.42
2019-02-04T00:05:21.517Z,77.68
2019-02-04T00:07:49.833Z,77.73
2019-02-04T00:10:18.224Z,77.68
2019-02-04T00:12:46.505Z,77.69
2019-02-04T00:15:15.083Z,77.69
2019-02-04T00:17:43.325Z,77.77
2019-02-04T00:20:11.806Z,77.43
2019-02-04T00:22:40.091Z,77.71
2019-02-04T00:25:08.569Z,77.40
2019-02-04T00:27:36.856Z,77.59
2019-02-04T00:30:29.081Z,77.05
2019-02-04T00:32:57.461Z,76.57
2019-02-04T00:35:25.710Z,77.02
2019-02-04T00:37:54.015Z,77.15
2019-02-04T00:40:24.773Z,77.18
2019-02-04T00:42:53.139Z,76.97
2019-02-04T00:45:21.492Z,77.01
2019-02-04T00:47:49.785Z,77.00
2019-02-04T00:50:20.513Z,77.35
2019-02-04T00:52:48.765Z,77.39
2019-02-04T00:55:18.685Z,76.92
2019-02-04T00:57:46.951Z,76.75
2019-02-04T01:00:20.939Z,76.80
2019-02-04T01:02:49.205Z,76.68
2019-02-04T01:05:19.703Z,76.89
2019-02-04T01:07:48.511Z,76.82
2019-02-04T01:10:23.034Z,76.50
2019-02-04T01:12:51.308Z,76.68
2019-02-04T01:15:19.736Z,76.63
2019-02-04T01:17:47.984Z,77.39
2019-02-04T01:20:30.108Z,76.86
2019-02-04T01:22:58.746Z,76.98
2019-02-04T01:25:26.994Z,77.52
2019-02-04T01:27:55.247Z,77.73
2019-02-04T01:30:24.464Z,77.34
2019-02-04T01:32:52.708Z,76.85
2019-02-04T01:35:21.113Z,76.93
2019-02-04T01:37:49.354Z,76.81
2019-02-04T01:40:19.780Z,77.05
2019-02-04T01:42:48.110Z,77.09
2019-02-04T01:45:16.428Z,76.83
2019-02-04T01:47:44.672Z,77.34
2019-02-04T01:50:15.337Z,77.31
2019-02-04T01:52:43.586Z,78.83
2019-02-04T01:55:13.665Z,78.04
2019-02-04T01:57:41.998Z,77.79
2019-02-04T02:00:25.827Z,77.66
2019-02-04T02:02:54.354Z,77.80
2019-02-04T02:05:22.733Z,77.66
2019-02-04T02:07:50.976Z,78.40
2019-02-04T02:10:21.426Z,77.70
2019-02-04T02:12:49.857Z,79.14
2019-02-04T02:15:18.168Z,78.63
2019-02-04T02:17:46.914Z,79.10
2019-02-04T02:20:20.721Z,78.97
2019-02-04T02:22:48.960Z,78.81
2019-02-04T02:25:17.356Z,78.44
2019-02-04T02:27:45.606Z,78.59
2019-02-04T02:30:20.057Z,78.28
2019-02-04T02:32:47.667Z,78.84
2019-02-04T02:35:16.154Z,79.99
2019-02-04T02:37:44.420Z,78.65
2019-02-04T02:40:21.557Z,78.86
2019-02-04T02:42:49.819Z,78.41
2019-02-04T02:45:18.411Z,78.79
2019-02-04T02:47:46.674Z,79.13
2019-02-04T02:50:15.272Z,78.75
2019-02-04T02:52:43.533Z,79.32
2019-02-04T02:55:14.605Z,80.17
2019-02-04T02:57:42.853Z,80.21
2019-02-04T03:00:14.449Z,80.11
2019-02-04T03:02:44.355Z,80.12
2019-02-04T03:05:14.933Z,80.86
2019-02-04T03:07:43.185Z,80.30
2019-02-04T03:10:17.700Z,80.63
2019-02-04T03:12:46.313Z,79.93
2019-02-04T03:15:14.653Z,79.85
2019-02-04T03:17:51.393Z,80.13
2019-02-04T03:20:13.175Z,80.35
2019-02-04T03:22:43.073Z,80.38
2019-02-04T03:25:13.142Z,79.81
2019-02-04T03:27:41.672Z,80.15
2019-02-04T03:30:16.066Z,80.26
2019-02-04T03:32:43.691Z,80.36
2019-02-04T03:35:12.035Z,81.37
2019-02-04T03:37:43.337Z,80.58
2019-02-04T03:40:14.793Z,80.61
2019-02-04T03:42:43.042Z,80.75
2019-02-04T03:45:12.596Z,80.72
2019-02-04T03:47:40.857Z,80.82
2019-02-04T03:50:11.639Z,80.65
2019-02-04T03:52:39.917Z,80.37
2019-02-04T03:55:11.082Z,80.50
2019-02-04T03:57:39.331Z,80.48
2019-02-04T04:00:18.074Z,80.35
2019-02-04T04:02:46.325Z,80.60
2019-02-04T04:05:14.641Z,81.22
2019-02-04T04:07:43.299Z,80.75
2019-02-04T04:10:11.588Z,80.83
2019-02-04T04:12:39.893Z,80.78
2019-02-04T04:15:13.267Z,80.50
2019-02-04T04:17:41.535Z,80.04
2019-02-04T04:20:17.746Z,79.89
2019-02-04T04:22:46.115Z,80.34
2019-02-04T04:25:16.708Z,80.23
2019-02-04T04:27:44.992Z,80.58
2019-02-04T04:30:22.182Z,80.33
2019-02-04T04:32:50.481Z,80.85
2019-02-04T04:35:18.818Z,80.90
2019-02-04T04:37:47.101Z,80.77
2019-02-04T04:40:16.530Z,80.72
2019-02-04T04:42:44.807Z,81.13
2019-02-04T04:45:16.352Z,81.09
2019-02-04T04:47:44.637Z,81.36
2019-02-04T04:50:13.011Z,81.20
2019-02-04T04:52:41.284Z,81.33
2019-02-04T04:55:12.696Z,81.23
2019-02-04T04:57:40.957Z,81.55
2019-02-04T05:00:18.690Z,81.42
2019-02-04T05:02:46.959Z,81.46
2019-02-04T05:05:18.035Z,81.42
2019-02-04T05:07:47.962Z,81.28
2019-02-04T05:10:18.151Z,81.48
2019-02-04T05:12:46.423Z,81.52
2019-02-04T05:15:19.963Z,81.36
2019-02-04T05:17:52.520Z,81.58
2019-02-04T05:20:18.789Z,81.63
2019-02-04T05:22:47.065Z,82.26
2019-02-04T05:25:15.932Z,82.18
2019-02-04T05:27:46.686Z,81.52
2019-02-04T05:30:21.237Z,81.60
2019-02-04T05:32:49.490Z,81.54
2019-02-04T05:35:17.827Z,81.77
2019-02-04T05:37:46.109Z,81.87
2019-02-04T05:40:16.373Z,81.78
2019-02-04T05:42:47.098Z,82.04
2019-02-04T05:45:17.826Z,81.88
2019-02-04T05:47:46.099Z,81.87
2019-02-04T05:50:17.404Z,81.92
2019-02-04T05:52:45.956Z,81.86
2019-02-04T05:55:15.336Z,81.92
2019-02-04T05:57:43.685Z,82.01
2019-02-04T06:00:16.326Z,82.46
2019-02-04T06:02:44.580Z,82.38
2019-02-04T06:05:14.583Z,82.20
2019-02-04T06:07:42.879Z,82.30
2019-02-04T06:10:14.829Z,82.18
2019-02-04T06:12:43.115Z,82.36
2019-02-04T06:15:13.554Z,82.38
2019-02-04T06:17:42.002Z,82.21
2019-02-04T06:20:17.007Z,82.12
2019-02-04T06:22:45.312Z,82.04
2019-02-04T06:25:13.725Z,82.05
2019-02-04T06:27:42.105Z,82.13
2019-02-04T06:30:13.238Z,81.93
2019-02-04T06:32:41.511Z,82.26
2019-02-04T06:35:09.942Z,82.03
2019-02-04T06:37:38.649Z,82.10
2019-02-04T06:40:13.347Z,81.97
2019-02-04T06:42:41.008Z,81.72
2019-02-04T06:45:11.648Z,82.48
2019-02-04T06:47:39.931Z,82.32
2019-02-04T06:50:11.624Z,81.94
2019-02-04T06:52:40.239Z,81.78
2019-02-04T06:55:11.842Z,82.17
2019-02-04T06:57:40.201Z,82.07
2019-02-04T07:00:11.935Z,81.76
2019-02-04T07:02:40.221Z,82.05
2019-02-04T07:05:09.069Z,82.02
2019-02-04T07:07:37.659Z,82.18
2019-02-04T07:10:20.702Z,82.12
2019-02-04T07:12:48.978Z,82.04
2019-02-04T07:15:17.272Z,81.73
2019-02-04T07:17:45.547Z,81.88
2019-02-04T07:20:17.026Z,82.05
2019-02-04T07:22:45.415Z,82.14
2019-02-04T07:25:15.265Z,81.86
2019-02-04T07:27:43.570Z,81.86
2019-02-04T07:30:17.082Z,81.96
2019-02-04T07:32:45.380Z,81.71
2019-02-04T07:35:15.795Z,81.73
2019-02-04T07:37:44.086Z,81.56
2019-02-04T07:40:39.150Z,81.42
2019-02-04T07:43:07.411Z,81.35
2019-02-04T07:45:35.706Z,80.69
2019-02-04T07:48:03.962Z,80.36
2019-02-04T07:50:32.248Z,79.94
2019-02-04T07:53:00.515Z,79.62
2019-02-04T07:55:28.853Z,78.91
2019-02-04T07:57:57.635Z,78.65
2019-02-04T08:00:31.329Z,77.93
2019-02-04T08:02:59.567Z,76.98
2019-02-04T08:05:27.834Z,76.59
2019-02-04T08:07:56.096Z,75.65
2019-02-04T08:10:24.399Z,75.03
2019-02-04T08:13:00.882Z,74.49
2019-02-04T08:15:36.846Z,73.56
2019-02-04T08:18:06.044Z,73.86
2019-02-04T08:20:34.402Z,73.81
2019-02-04T08:23:02.664Z,73.76
2019-02-04T08:25:30.938Z,73.80
2019-02-04T08:27:59.273Z,72.47
2019-02-04T08:30:32.889Z,70.70
2019-02-04T08:33:01.309Z,68.37
2019-02-04T08:35:30.162Z,64.72
2019-02-04T08:37:58.430Z,64.18
2019-02-04T08:40:26.780Z,63.42
2019-02-04T08:42:58.151Z,62.19
2019-02-04T08:45:26.437Z,61.08
2019-02-04T08:47:54.694Z,61.54
2019-02-04T08:50:24.697Z,60.93
2019-02-04T08:52:52.953Z,60.37
2019-02-04T08:55:21.269Z,59.58
2019-02-04T08:57:49.598Z,57.08
2019-02-04T09:00:20.769Z,56.00
2019-02-04T09:02:49.048Z,55.24
2019-02-04T09:05:18.109Z,53.75
2019-02-04T09:07:46.467Z,51.90
2019-02-04T09:10:17.873Z,51.05
2019-02-04T09:12:46.178Z,49.55
2019-02-04T09:15:16.304Z,49.21
2019-02-04T09:17:44.790Z,46.92
2019-02-04T09:20:17.744Z,45.22
2019-02-04T09:22:46.751Z,46.30
2019-02-04T09:25:17.213Z,44.98
2019-02-04T09:27:45.575Z,44.62
2019-02-04T09:30:16.405Z,43.45
2019-02-04T09:32:44.749Z,44.25
2019-02-04T09:35:15.585Z,42.60
2019-02-04T09:37:43.887Z,43.75
2019-02-04T09:40:23.994Z,44.96
2019-02-04T09:42:52.286Z,45.92
2019-02-04T09:45:20.574Z,45.85
2019-02-04T09:47:48.933Z,46.75
2019-02-04T09:50:25.905Z,48.75
2019-02-04T09:52:54.189Z,50.05
2019-02-04T09:55:32.018Z,52.00
2019-02-04T09:58:00.314Z,52.30
2019-02-04T10:00:31.373Z,53.54
2019-02-04T10:02:59.678Z,55.24
2019-02-04T10:05:27.947Z,55.01
2019-02-04T10:07:56.190Z,56.14
2019-02-04T10:10:26.547Z,57.07
2019-02-04T10:12:54.804Z,57.57
2019-02-04T10:15:25.951Z,57.14
2019-02-04T10:17:54.242Z,57.88
2019-02-04T10:20:32.970Z,58.31
2019-02-04T10:22:52.617Z,57.89
2019-02-04T10:25:23.932Z,58.64
2019-02-04T10:27:52.402Z,58.87
2019-02-04T10:30:22.810Z,59.50
2019-02-04T10:32:51.103Z,59.53
2019-02-04T10:35:20.062Z,59.63
2019-02-04T10:37:50.568Z,59.97
2019-02-04T10:40:21.074Z,60.04
2019-02-04T10:42:49.358Z,60.04
2019-02-04T10:45:19.280Z,59.76
2019-02-04T10:47:47.817Z,60.22
2019-02-04T10:50:28.468Z,59.85
2019-02-04T10:52:56.881Z,59.79
2019-02-04T10:55:25.504Z,59.88
2019-02-04T10:57:53.787Z,59.55
2019-02-04T11:00:27.986Z,59.23
2019-02-04T11:02:56.427Z,59.07
2019-02-04T11:05:27.917Z,58.79
2019-02-04T11:07:56.323Z,59.12
2019-02-04T11:10:26.581Z,58.34
2019-02-04T11:12:54.920Z,58.94
2019-02-04T11:15:25.629Z,58.58
2019-02-04T11:17:53.409Z,58.54
2019-02-04T11:20:28.283Z,58.82
2019-02-04T11:22:56.624Z,58.66
2019-02-04T11:25:24.941Z,59.00
2019-02-04T11:27:53.233Z,59.03
2019-02-04T11:30:30.340Z,58.24
2019-02-04T11:32:58.656Z,58.98
2019-02-04T11:35:26.941Z,59.11
2019-02-04T11:37:55.206Z,58.93
2019-02-04T11:40:52.002Z,59.46
2019-02-04T11:43:20.281Z,59.09
2019-02-04T11:45:48.721Z,59.02
2019-02-04T11:48:17.152Z,59.55
2019-02-04T11:50:45.389Z,59.22
2019-02-04T11:53:13.665Z,59.66
2019-02-04T11:55:41.953Z,59.29
2019-02-04T11:58:10.218Z,59.80
2019-02-04T12:00:38.672Z,59.25
2019-02-04T12:03:09.571Z,59.13
2019-02-04T12:05:37.846Z,59.50
2019-02-04T12:08:06.367Z,59.97
2019-02-04T12:10:49.192Z,60.05
2019-02-04T12:13:17.460Z,60.38
2019-02-04T12:15:45.956Z,59.89
2019-02-04T12:18:14.221Z,59.19
2019-02-04T12:20:42.505Z,58.09
2019-02-04T12:23:10.757Z,58.83
2019-02-04T12:25:39.328Z,58.86
2019-02-04T12:28:07.593Z,58.48
2019-02-04T12:30:40.717Z,58.87
2019-02-04T12:33:11.022Z,57.88
2019-02-04T12:35:39.367Z,57.89
2019-02-04T12:38:07.627Z,58.06
2019-02-04T12:40:36.261Z,57.72
2019-02-04T12:43:04.596Z,58.40
2019-02-04T12:45:37.371Z,58.59
2019-02-04T12:48:05.763Z,58.40
2019-02-04T12:50:34.097Z,58.35
2019-02-04T12:53:02.370Z,57.45
2019-02-04T12:55:32.266Z,58.51
2019-02-04T12:58:00.545Z,57.94
2019-02-04T13:00:30.269Z,56.87
2019-02-04T13:02:59.116Z,56.95
2019-02-04T13:05:39.192Z,57.80
2019-02-04T13:08:11.257Z,57.62
2019-02-04T13:10:39.524Z,58.12
2019-02-04T13:13:09.706Z,58.42
2019-02-04T13:15:38.389Z,58.33
2019-02-04T13:18:08.963Z,57.95
2019-02-04T13:20:36.967Z,57.62
2019-02-04T13:23:08.271Z,57.63
2019-02-04T13:25:36.606Z,57.81
2019-02-04T13:28:06.604Z,57.52
2019-02-04T13:30:34.865Z,57.65
2019-02-04T13:33:03.163Z,57.25
2019-02-04T13:35:31.411Z,57.63
2019-02-04T13:37:59.703Z,56.93
2019-02-04T13:40:29.193Z,57.17
2019-02-04T13:42:57.485Z,57.79
2019-02-04T13:45:25.735Z,57.36
2019-02-04T13:47:54.380Z,57.17
2019-02-04T13:50:23.307Z,56.55
2019-02-04T13:52:52.119Z,57.20
2019-02-04T13:55:25.583Z,56.73
2019-02-04T13:57:54.553Z,56.67
2019-02-04T14:00:23.000Z,56.80
2019-02-04T14:02:58.960Z,56.59
2019-02-04T14:05:21.447Z,56.81
2019-02-04T14:07:49.717Z,55.51
2019-02-04T14:10:22.998Z,56.23
2019-02-04T14:12:51.268Z,57.36
2019-02-04T14:15:19.672Z,56.95
2019-02-04T14:17:47.961Z,56.67
2019-02-04T14:20:22.435Z,56.06
2019-02-04T14:22:53.314Z,56.58
2019-02-04T14:25:20.776Z,56.89
2019-02-04T14:27:49.074Z,55.98
2019-02-04T14:30:20.636Z,56.88
2019-02-04T14:32:49.196Z,56.42
2019-02-04T14:35:20.819Z,56.04
2019-02-04T14:37:50.231Z,56.79
2019-02-04T14:40:26.016Z,55.78
2019-02-04T14:42:59.790Z,56.06
2019-02-04T14:45:31.306Z,55.14
2019-02-04T14:48:06.129Z,56.04
2019-02-04T14:50:43.466Z,55.81
2019-02-04T14:53:30.945Z,56.29
2019-02-04T14:56:08.098Z,56.14
2019-02-04T14:58:42.217Z,57.14
2019-02-04T15:01:33.666Z,56.07
2019-02-04T15:04:17.791Z,56.04
2019-02-04T15:07:22.771Z,56.72
2019-02-04T15:10:18.809Z,56.60
2019-02-04T15:13:16.263Z,56.24
2019-02-04T15:16:15.005Z,56.38
2019-02-04T15:19:05.441Z,56.81
2019-02-04T15:21:43.255Z,57.31
2019-02-04T15:24:20.781Z,57.14
2019-02-04T15:26:54.993Z,56.58
2019-02-04T15:29:27.899Z,55.86
2019-02-04T15:32:20.379Z,56.17
2019-02-04T15:35:15.980Z,56.24
2019-02-04T15:37:50.244Z,56.71
2019-02-04T15:40:24.484Z,55.94
2019-02-04T15:43:07.848Z,57.04
2019-02-04T15:45:43.824Z,57.66
2019-02-04T15:48:14.915Z,57.81
2019-02-04T15:50:46.470Z,57.40
2019-02-04T15:53:14.795Z,57.22
2019-02-04T15:55:43.938Z,57.76
2019-02-04T15:58:12.225Z,58.15
2019-02-04T16:00:40.498Z,58.10
2019-02-04T16:03:08.755Z,58.07
2019-02-04T16:05:37.047Z,58.52
2019-02-04T16:08:05.390Z,59.27
2019-02-04T16:10:33.675Z,57.40
2019-02-04T16:13:01.961Z,58.74
2019-02-04T16:15:30.247Z,59.13
2019-02-04T16:17:59.240Z,59.10
2019-02-04T16:20:27.779Z,59.00
2019-02-04T16:22:58.786Z,59.10
2019-02-04T16:25:26.381Z,58.86
2019-02-04T16:27:55.042Z,59.29
2019-02-04T16:30:23.586Z,59.30
2019-02-04T16:32:53.004Z,59.94
2019-02-04T16:35:21.590Z,60.12
2019-02-04T16:37:56.110Z,59.09
2019-02-04T16:40:24.661Z,60.40
2019-02-04T16:42:53.613Z,60.72
2019-02-04T16:45:26.825Z,60.11
2019-02-04T16:47:55.493Z,60.05
2019-02-04T16:50:26.155Z,60.19
2019-02-04T16:52:54.747Z,60.93
2019-02-04T16:55:26.403Z,60.87
2019-02-04T16:57:54.891Z,60.76
2019-02-04T17:00:25.212Z,60.33
2019-02-04T17:02:53.619Z,60.58
2019-02-04T17:05:23.431Z,60.45
2019-02-04T17:07:51.692Z,60.79
2019-02-04T17:10:22.223Z,60.91
2019-02-04T17:12:50.659Z,60.36
2019-02-04T17:15:19.294Z,61.22
2019-02-04T17:17:47.908Z,60.05
2019-02-04T17:24:22.574Z,60.43
2019-02-04T17:26:52.832Z,61.24
2019-02-04T17:29:21.175Z,61.58
2019-02-04T17:31:51.321Z,60.69
2019-02-04T17:34:20.369Z,61.66
2019-02-04T17:36:48.713Z,60.84
2019-02-04T17:39:16.952Z,61.79
2019-02-04T17:41:47.626Z,61.28
2019-02-04T17:44:16.065Z,61.37
2019-02-04T17:46:44.849Z,60.93
2019-02-04T17:49:13.247Z,59.76
2019-02-04T17:51:41.688Z,60.41
2019-02-04T17:54:11.678Z,60.10
2019-02-04T17:56:42.484Z,59.60
2019-02-04T17:59:10.785Z,60.60
2019-02-04T18:01:39.180Z,59.62
2019-02-04T18:04:09.154Z,59.96
2019-02-04T18:06:37.439Z,60.19
2019-02-04T18:09:10.231Z,59.91
2019-02-04T18:11:38.830Z,59.99
2019-02-04T18:14:07.128Z,59.61
2019-02-04T18:16:37.893Z,60.13
2019-02-04T18:19:06.154Z,59.91
2019-02-04T18:21:34.496Z,60.29
2019-02-04T18:24:02.762Z,60.13
2019-02-04T18:26:31.055Z,60.57
2019-02-04T18:28:59.370Z,60.28
2019-02-04T18:31:27.774Z,59.68
2019-02-04T18:33:56.433Z,59.83
2019-02-04T18:36:24.740Z,59.84
2019-02-04T18:38:53.176Z,59.39
2019-02-04T18:41:21.469Z,59.67
2019-02-04T18:43:49.759Z,58.87
2019-02-04T18:46:18.062Z,59.94
2019-02-04T18:48:46.808Z,59.82
2019-02-04T18:51:15.072Z,60.05
2019-02-04T18:53:43.423Z,59.66
2019-02-04T18:56:13.690Z,59.75
2019-02-04T18:58:41.977Z,59.16
2019-02-04T19:01:10.270Z,59.22
2019-02-04T19:03:38.546Z,59.65
2019-02-04T19:06:06.837Z,59.48
2019-02-04T19:08:35.100Z,59.82
2019-02-04T19:11:03.672Z,59.76
2019-02-04T19:13:36.092Z,59.63
2019-02-04T19:16:02.053Z,59.95
2019-02-04T19:18:30.344Z,59.21
2019-02-04T19:20:58.635Z,59.21
2019-02-04T19:23:27.173Z,59.04
2019-02-04T19:25:55.393Z,59.20
2019-02-04T19:28:23.667Z,58.56
2019-02-04T19:31:01.267Z,59.17
2019-02-04T19:33:29.766Z,59.16
2019-02-04T19:35:58.198Z,59.00
2019-02-04T19:38:26.493Z,59.67
2019-02-04T19:40:55.199Z,58.71
2019-02-04T19:43:23.503Z,58.60
2019-02-04T19:45:52.074Z,59.12
2019-02-04T19:48:20.370Z,58.92
2019-02-04T19:50:48.641Z,59.18
2019-02-04T19:53:16.961Z,57.92
2019-02-04T19:55:45.223Z,58.56
2019-02-04T19:58:13.988Z,58.56
2019-02-04T20:00:42.320Z,59.19
2019-02-04T20:03:10.617Z,58.23
2019-02-04T20:05:39.117Z,58.66
2019-02-04T20:08:07.499Z,58.44
2019-02-04T20:10:35.932Z,58.90
2019-02-04T20:13:04.878Z,58.95
2019-02-04T20:15:33.670Z,58.75
2019-02-04T20:18:02.217Z,58.06
2019-02-04T20:20:30.595Z,58.11
2019-02-04T20:23:00.635Z,58.67
2019-02-04T20:25:34.329Z,59.22
2019-02-04T20:28:05.482Z,59.35
2019-02-04T20:30:45.874Z,58.98
2019-02-04T20:33:10.564Z,59.17
2019-02-04T20:35:39.219Z,59.39
2019-02-04T20:38:08.581Z,59.28
2019-02-04T20:40:38.528Z,58.62
2019-02-04T20:43:08.043Z,58.18
2019-02-04T20:45:36.475Z,58.48
2019-02-04T20:48:06.932Z,58.71
2019-02-04T20:51:03.452Z,58.62
2019-02-04T20:53:31.735Z,59.07
2019-02-04T20:56:00.381Z,59.10
2019-02-04T20:58:28.652Z,58.66
2019-02-04T21:00:59.905Z,59.04
2019-02-04T21:03:28.162Z,58.50
2019-02-04T21:05:56.922Z,58.99
2019-02-04T21:08:25.200Z,58.70
2019-02-04T21:10:55.741Z,58.49
2019-02-04T21:13:23.569Z,59.39
2019-02-04T21:15:51.859Z,59.28
2019-02-04T21:18:20.100Z,58.25
2019-02-04T21:20:48.515Z,58.72
2019-02-04T21:23:17.320Z,58.62
2019-02-04T21:25:46.278Z,58.25
2019-02-04T21:28:14.527Z,58.45
2019-02-04T21:30:42.881Z,58.39
2019-02-04T21:33:11.125Z,59.01
2019-02-04T21:35:39.389Z,59.17
2019-02-04T21:38:08.024Z,59.11
2019-02-04T21:40:36.324Z,59.29
2019-02-04T21:43:04.734Z,58.61
2019-02-04T21:45:32.994Z,59.38
2019-02-04T21:48:01.258Z,59.43
2019-02-04T21:50:29.652Z,59.42
2019-02-04T21:52:57.938Z,59.73
2019-02-04T21:55:26.565Z,60.41
2019-02-04T21:57:54.823Z,59.78
2019-02-04T22:00:25.537Z,60.64
2019-02-04T22:02:55.443Z,60.25
2019-02-04T22:05:25.906Z,60.35
2019-02-04T22:07:54.355Z,60.38
2019-02-04T22:10:25.161Z,60.64
2019-02-04T22:12:53.432Z,60.69
2019-02-04T22:15:21.801Z,60.53
2019-02-04T22:17:50.056Z,60.50
2019-02-04T22:20:19.727Z,60.70
2019-02-04T22:22:48.045Z,60.31
2019-02-04T22:25:23.785Z,60.59
2019-02-04T22:27:52.054Z,61.04
2019-02-04T22:30:23.124Z,60.85
2019-02-04T22:32:51.371Z,60.89
2019-02-04T22:35:20.357Z,61.32
2019-02-04T22:37:50.217Z,61.09
2019-02-04T22:40:21.632Z,61.42
2019-02-04T22:42:50.052Z,61.81
2019-02-04T22:45:20.104Z,62.08
2019-02-04T22:47:48.361Z,62.08
2019-02-04T22:50:20.551Z,62.43
2019-02-04T22:52:48.762Z,62.57
2019-02-04T22:55:17.457Z,62.97
2019-02-04T22:57:45.694Z,64.03
2019-02-04T23:00:47.767Z,63.95
2019-02-04T23:03:18.225Z,64.50
2019-02-04T23:05:46.493Z,64.70
2019-02-04T23:08:14.721Z,64.84
2019-02-04T23:10:43.047Z,64.88
2019-02-04T23:13:12.926Z,65.51
2019-02-04T23:15:41.178Z,65.77
2019-02-04T23:18:16.771Z,66.10
2019-02-04T23:20:45.061Z,66.33
2019-02-04T23:23:17.389Z,67.16
2019-02-04T23:25:47.227Z,66.96
2019-02-04T23:28:15.480Z,66.91
2019-02-04T23:30:44.120Z,67.03
2019-02-04T23:33:12.389Z,66.67
2019-02-04T23:35:40.629Z,67.31
2019-02-04T23:38:08.891Z,67.34
2019-02-04T23:40:39.923Z,67.35
2019-02-04T23:43:08.170Z,67.30
2019-02-04T23:45:36.435Z,67.63
2019-02-04T23:48:07.862Z,68.10
2019-02-04T23:50:36.095Z,68.86
2019-02-04T23:53:04.508Z,69.38
2019-02-04T23:55:32.767Z,69.83
2019-02-04T23:58:01.047Z,70.30
